Terminal Aerodrome Forecast
Issued by NWS

Home | Current Version | Previous Version | Text Only | Print | Product List | Glossary On
Versions: 1 2 3 4 5 6 7 8 9 10 11 12 13 14 15 16 17 18 19 20 21 22 23 24 25 26
000
FTUS46 KSEW 271427 AAA
TAFSEA
TAF AMD
KSEA 271427Z 2714/2818 18008KT P6SM BKN020 OVC040
     FM271700 20008KT P6SM BKN025 OVC040
     FM272000 24006KT P6SM SCT040 SCT200
     FM280000 32006KT P6SM SCT200
     FM280900 VRB04KT P6SM SCT020
     FM281100 18006KT P6SM BKN020=

USA.gov is the U.S. government's official web portal to all federal, state and local government web resources and services.